Time;durP1;ratioP1;P1;durP2;ratioP2;P2;SDS_P1;SDS_P2;PMS_P1;PMS_P2;Temp;Humidity;BMP_temperature;BMP_pressure;BME280_temperature;BME280_humidity;BME280_pressure;Samples;Min_cycle;Max_cycle;Signal;HPM_P1;HPM_P2
2023/03/26 00:01:22;;;;;;;108.95;54.28;;;6.50;99.90;;;;;;4954669;28;20039;-74
2023/03/26 00:03:52;;;;;;;91.72;49.08;;;6.40;99.90;;;;;;4993120;28;20637;-75
2023/03/26 00:06:21;;;;;;;89.20;49.17;;;6.40;99.90;;;;;;4992657;28;20042;-75
2023/03/26 00:08:49;;;;;;;87.75;44.70;;;6.40;99.90;;;;;;4991437;28;20124;-77
2023/03/26 00:11:19;;;;;;;82.93;42.65;;;6.40;99.90;;;;;;4990884;28;20046;-74
2023/03/26 00:13:46;;;;;;;111.18;47.78;;;6.40;99.90;;;;;;4989995;28;20042;-75
2023/03/26 00:16:17;;;;;;;74.25;39.95;;;6.40;99.90;;;;;;5005304;28;20565;-75
2023/03/26 00:18:45;;;;;;;67.35;34.70;;;6.30;99.90;;;;;;4990785;28;20051;-75
2023/03/26 00:21:14;;;;;;;64.82;39.80;;;6.40;99.90;;;;;;4992738;28;20105;-75
2023/03/26 00:23:43;;;;;;;107.80;50.35;;;6.40;99.90;;;;;;4994861;28;20038;-75
2023/03/26 00:26:11;;;;;;;132.25;54.33;;;6.40;99.90;;;;;;4994334;28;20073;-74
2023/03/26 00:28:40;;;;;;;160.13;54.17;;;6.40;99.90;;;;;;4994910;28;20050;-74
2023/03/26 00:31:10;;;;;;;146.20;55.85;;;6.40;99.90;;;;;;5001329;28;20529;-74
2023/03/26 00:33:39;;;;;;;108.25;50.58;;;6.30;99.90;;;;;;4991511;28;20174;-74
2023/03/26 00:36:09;;;;;;;85.97;47.03;;;6.30;99.90;;;;;;4990693;28;20072;-74
2023/03/26 00:38:37;;;;;;;84.10;40.00;;;6.30;99.90;;;;;;4992268;28;20056;-75
2023/03/26 00:41:06;;;;;;;72.65;36.13;;;6.30;99.90;;;;;;4989818;28;20042;-76
2023/03/26 00:43:36;;;;;;;73.60;36.90;;;6.20;99.90;;;;;;4991122;28;20062;-75
2023/03/26 00:46:05;;;;;;;125.78;36.22;;;6.20;99.90;;;;;;4990572;28;20406;-75
2023/03/26 00:48:33;;;;;;;82.20;38.38;;;6.20;99.90;;;;;;5005522;28;20038;-75
2023/03/26 00:51:01;;;;;;;79.45;40.28;;;6.20;99.90;;;;;;4992608;28;20054;-75
2023/03/26 00:53:29;;;;;;;77.90;35.45;;;6.10;99.90;;;;;;4992600;28;20050;-74
2023/03/26 00:55:59;;;;;;;65.47;35.10;;;6.10;99.90;;;;;;4991046;28;20065;-75
2023/03/26 00:58:26;;;;;;;83.18;39.70;;;6.10;99.90;;;;;;4990672;28;20097;-74
2023/03/26 01:00:57;;;;;;;79.95;38.38;;;6.00;99.90;;;;;;4991013;28;20516;-74
2023/03/26 01:03:27;;;;;;;78.90;37.70;;;6.00;99.90;;;;;;5001483;28;20130;-75
2023/03/26 01:06:03;;;;;;;67.97;32.22;;;5.90;99.90;;;;;;5002590;28;20042;-74
2023/03/26 01:08:35;;;;;;;78.32;30.15;;;5.70;99.90;;;;;;5001995;28;20329;-75
2023/03/26 01:11:06;;;;;;;75.35;30.45;;;5.60;99.90;;;;;;5000929;28;20070;-75
2023/03/26 01:13:37;;;;;;;63.42;31.90;;;5.60;99.90;;;;;;4995796;28;20053;-76
2023/03/26 01:16:10;;;;;;;61.92;32.67;;;5.50;99.90;;;;;;4990615;28;20446;-75
2023/03/26 01:18:40;;;;;;;62.55;33.25;;;5.70;99.90;;;;;;4989184;28;20034;-75
2023/03/26 01:21:13;;;;;;;54.85;29.67;;;5.80;99.90;;;;;;5003887;28;20105;-74
2023/03/26 01:23:47;;;;;;;56.22;30.05;;;5.90;99.90;;;;;;4988444;28;20518;-75
2023/03/26 01:26:48;;;;;;;55.60;29.73;;;5.90;99.90;;;;;;5003839;28;20100;-76
2023/03/26 01:29:22;;;;;;;55.60;30.52;;;6.00;99.90;;;;;;4986777;28;20050;-74
2023/03/26 01:31:57;;;;;;;52.60;32.83;;;6.00;99.90;;;;;;5005174;28;20121;-74
2023/03/26 01:34:33;;;;;;;58.08;34.53;;;5.90;99.90;;;;;;4990210;28;20209;-74
2023/03/26 01:37:04;;;;;;;;;;;5.90;99.90;;;;;;5004964;28;20047;-74
2023/03/26 01:39:39;;;;;;;51.15;33.00;;;5.90;99.90;;;;;;4990447;28;19976;-74
2023/03/26 01:42:13;;;;;;;46.08;29.40;;;5.90;99.90;;;;;;4990530;28;20046;-75
2023/03/26 01:44:48;;;;;;;53.00;31.67;;;5.90;99.90;;;;;;5003530;28;20034;-73
2023/03/26 01:47:17;;;;;;;54.17;31.05;;;6.00;99.90;;;;;;4999514;28;20046;-74
2023/03/26 01:49:45;;;;;;;54.70;30.13;;;6.10;99.90;;;;;;4997660;28;20060;-74
2023/03/26 01:52:16;;;;;;;50.40;27.88;;;6.00;99.90;;;;;;4990490;28;20695;-74
2023/03/26 01:54:45;;;;;;;52.72;28.95;;;5.90;99.90;;;;;;4989929;28;20043;-75
2023/03/26 01:57:20;;;;;;;48.75;25.58;;;5.90;99.90;;;;;;4989671;28;20038;-75
2023/03/26 02:00:11;;;;;;;51.80;25.63;;;5.90;99.90;;;;;;4988117;28;20053;-75
2023/03/26 02:02:53;;;;;;;54.65;27.55;;;5.90;99.90;;;;;;4989386;28;20054;-76
2023/03/26 02:05:25;;;;;;;45.17;24.42;;;5.90;99.90;;;;;;5002378;28;20518;-75
2023/03/26 02:08:00;;;;;;;51.28;22.25;;;5.90;99.90;;;;;;5004238;28;20050;-76
2023/03/26 02:10:29;;;;;;;46.60;23.50;;;5.80;99.90;;;;;;4989572;28;20043;-75
2023/03/26 02:12:59;;;;;;;49.03;24.92;;;5.90;99.90;;;;;;4988440;28;20045;-75
2023/03/26 02:15:26;;;;;;;47.50;24.80;;;5.90;99.90;;;;;;4988663;28;20104;-73
2023/03/26 02:17:54;;;;;;;47.88;25.52;;;5.90;99.90;;;;;;4987124;28;20050;-74
2023/03/26 02:20:21;;;;;;;65.20;25.38;;;5.80;99.90;;;;;;4990070;28;20060;-74
2023/03/26 02:22:49;;;;;;;61.55;24.17;;;5.90;99.90;;;;;;4987779;28;20641;-75
2023/03/26 02:25:21;;;;;;;55.13;24.25;;;5.90;99.90;;;;;;4988594;28;20431;-75
2023/03/26 02:27:52;;;;;;;61.53;24.90;;;5.90;99.90;;;;;;4987904;28;20039;-74
2023/03/26 02:30:24;;;;;;;53.85;25.08;;;5.90;99.90;;;;;;5002171;28;20049;-74
2023/03/26 02:32:54;;;;;;;62.53;26.33;;;5.90;99.90;;;;;;4987331;28;20140;-75
2023/03/26 02:35:23;;;;;;;74.65;23.23;;;5.80;99.90;;;;;;5003505;28;20042;-74
2023/03/26 02:37:56;;;;;;;62.42;23.00;;;5.80;99.90;;;;;;4988157;28;20053;-75
2023/03/26 02:40:23;;;;;;;57.97;22.95;;;5.70;99.90;;;;;;4988266;28;20585;-75
2023/03/26 02:42:52;;;;;;;48.72;20.90;;;5.70;99.90;;;;;;5008806;28;20035;-73
2023/03/26 02:45:21;;;;;;;44.40;20.00;;;5.70;99.90;;;;;;4987285;28;20502;-76
2023/03/26 02:48:15;;;;;;;49.42;18.63;;;5.70;99.90;;;;;;4988394;28;20145;-74
2023/03/26 02:50:54;;;;;;;55.33;19.02;;;5.70;99.90;;;;;;5010680;28;20057;-75
2023/03/26 02:53:45;;;;;;;50.45;18.30;;;5.60;99.90;;;;;;4995674;28;20959;-74
2023/03/26 02:56:31;;;;;;;43.75;19.15;;;5.60;99.90;;;;;;4992690;28;20050;-73
2023/03/26 02:59:12;;;;;;;55.85;19.15;;;5.60;99.90;;;;;;4986587;28;20052;-75
2023/03/26 03:01:43;;;;;;;42.28;18.45;;;5.60;99.90;;;;;;4987449;28;20046;-74
2023/03/26 03:04:13;;;;;;;39.03;18.52;;;5.60;99.90;;;;;;4987307;28;20070;-74
2023/03/26 03:06:43;;;;;;;40.10;17.83;;;5.60;99.90;;;;;;4988256;28;20074;-75
2023/03/26 03:09:12;;;;;;;45.03;18.15;;;5.60;99.90;;;;;;4988115;28;20125;-73
2023/03/26 03:11:40;;;;;;;36.92;20.40;;;5.60;99.90;;;;;;4989650;28;20130;-74
2023/03/26 03:14:08;;;;;;;44.78;21.13;;;5.60;99.90;;;;;;4986092;28;20466;-75
2023/03/26 03:16:36;;;;;;;41.83;21.40;;;5.60;99.90;;;;;;4988122;28;20034;-73
2023/03/26 03:19:08;;;;;;;46.40;20.73;;;5.60;99.90;;;;;;4989328;28;20690;-75
2023/03/26 03:21:40;;;;;;;48.22;23.70;;;5.70;99.90;;;;;;4988663;28;20483;-74
2023/03/26 03:24:10;;;;;;;65.28;25.00;;;5.60;99.90;;;;;;5003537;28;20046;-74
2023/03/26 03:26:46;;;;;;;108.72;30.40;;;5.60;99.90;;;;;;5002649;28;20399;-74
2023/03/26 03:29:31;;;;;;;83.55;29.65;;;5.60;99.90;;;;;;5003720;28;20066;-73
2023/03/26 03:32:10;;;;;;;91.68;37.95;;;5.60;99.90;;;;;;4987255;28;20043;-74
2023/03/26 03:34:45;;;;;;;140.32;36.60;;;5.50;99.90;;;;;;4987134;28;20126;-74
2023/03/26 03:37:12;;;;;;;76.05;33.42;;;5.40;99.90;;;;;;4987845;28;20097;-73
2023/03/26 03:39:46;;;;;;;105.32;33.72;;;5.40;99.90;;;;;;4987863;28;20085;-74
2023/03/26 03:42:18;;;;;;;66.50;31.15;;;5.40;99.90;;;;;;4986233;28;20057;-74
2023/03/26 03:44:45;;;;;;;54.45;28.02;;;5.30;99.90;;;;;;5005779;28;20046;-74
2023/03/26 03:47:39;;;;;;;63.08;27.17;;;5.30;99.90;;;;;;4990839;28;20042;-75
2023/03/26 03:50:10;;;;;;;97.60;28.27;;;5.40;99.90;;;;;;4990556;28;20585;-74
2023/03/26 03:52:44;;;;;;;66.63;28.02;;;5.40;99.90;;;;;;5007208;28;20057;-74
2023/03/26 03:55:16;;;;;;;74.00;26.35;;;5.30;99.90;;;;;;4993288;28;20046;-74
2023/03/26 03:57:48;;;;;;;76.32;23.23;;;5.20;99.90;;;;;;4994318;28;20050;-73
2023/03/26 04:00:21;;;;;;;73.05;23.15;;;5.10;99.90;;;;;;4989798;28;20044;-74
2023/03/26 04:03:05;;;;;;;101.60;22.50;;;5.10;99.90;;;;;;5004665;28;20046;-73
2023/03/26 04:05:35;;;;;;;65.80;17.10;;;5.10;99.90;;;;;;4990155;28;20047;-74
2023/03/26 04:08:02;;;;;;;60.67;16.10;;;4.90;99.90;;;;;;4991692;28;20046;-74
2023/03/26 04:10:42;;;;;;;39.28;17.10;;;4.80;99.90;;;;;;5005112;28;20081;-74
2023/03/26 04:13:13;;;;;;;39.22;13.27;;;4.80;99.90;;;;;;4990509;28;20042;-75
2023/03/26 04:16:04;;;;;;;29.50;12.85;;;4.80;99.90;;;;;;4984798;28;20050;-74
2023/03/26 04:18:32;;;;;;;31.67;14.02;;;4.80;99.90;;;;;;4989397;28;20038;-73
2023/03/26 04:21:08;;;;;;;39.35;13.60;;;4.80;99.90;;;;;;4989767;28;20081;-75
2023/03/26 04:23:35;;;;;;;53.33;18.52;;;4.90;99.90;;;;;;4990417;28;20676;-74
2023/03/26 04:26:35;;;;;;;32.85;18.08;;;5.00;99.90;;;;;;5000396;28;20050;-74
2023/03/26 04:29:26;;;;;;;55.85;20.50;;;5.00;99.90;;;;;;4997299;28;20043;-75
2023/03/26 04:32:05;;;;;;;53.15;19.90;;;5.10;99.90;;;;;;4992169;28;20042;-73
2023/03/26 04:34:35;;;;;;;36.95;18.85;;;5.10;99.90;;;;;;5005924;28;20074;-73
2023/03/26 04:37:17;;;;;;;38.83;19.52;;;5.20;99.90;;;;;;5006559;28;20042;-75
2023/03/26 04:39:51;;;;;;;39.22;18.92;;;5.30;99.90;;;;;;5005166;28;20054;-75
2023/03/26 04:42:40;;;;;;;42.65;18.30;;;5.20;99.90;;;;;;4987708;28;20046;-75
2023/03/26 04:45:21;;;;;;;49.47;19.17;;;5.20;99.90;;;;;;5005503;28;20050;-75
2023/03/26 04:47:54;;;;;;;40.90;19.15;;;5.30;99.90;;;;;;4990838;28;20100;-74
2023/03/26 04:50:22;;;;;;;40.92;18.50;;;5.40;99.90;;;;;;4991760;28;20168;-74
2023/03/26 04:52:52;;;;;;;39.00;18.90;;;5.40;99.90;;;;;;4991190;28;20034;-75
2023/03/26 04:55:43;;;;;;;34.08;18.80;;;5.40;99.90;;;;;;4997872;28;20321;-73
2023/03/26 04:58:19;;;;;;;42.10;19.33;;;5.50;99.90;;;;;;4992428;28;20053;-73
2023/03/26 05:01:04;;;;;;;38.03;20.47;;;5.40;99.90;;;;;;4989168;28;20453;-74
2023/03/26 05:03:32;;;;;;;42.35;21.13;;;5.50;99.90;;;;;;4988251;28;20046;-75
2023/03/26 05:06:06;;;;;;;40.63;19.48;;;5.50;99.90;;;;;;4988648;28;21072;-74
2023/03/26 05:08:35;;;;;;;49.83;21.50;;;5.40;99.90;;;;;;5009125;28;20533;-74
2023/03/26 05:11:10;;;;;;;44.80;22.20;;;5.50;99.90;;;;;;5004733;28;20154;-74
2023/03/26 05:13:38;;;;;;;44.72;22.17;;;5.40;99.90;;;;;;4997989;28;20065;-75
2023/03/26 05:16:11;;;;;;;46.42;20.60;;;5.30;99.90;;;;;;4989903;28;20042;-74
2023/03/26 05:18:46;;;;;;;59.17;20.98;;;5.40;99.90;;;;;;4988593;28;20050;-73
2023/03/26 05:21:15;;;;;;;39.22;21.02;;;5.40;99.90;;;;;;5004578;28;20588;-74
2023/03/26 05:23:44;;;;;;;40.88;21.42;;;5.40;99.90;;;;;;4989337;28;20085;-73
2023/03/26 05:26:19;;;;;;;35.80;19.52;;;5.50;99.90;;;;;;4987146;28;20069;-74
2023/03/26 05:28:46;;;;;;;26.90;15.82;;;5.60;99.90;;;;;;4987841;28;20038;-73
2023/03/26 05:31:27;;;;;;;30.73;16.88;;;5.60;99.90;;;;;;4987590;28;20042;-74
2023/03/26 05:33:59;;;;;;;29.90;16.77;;;5.70;99.90;;;;;;4988350;28;20045;-74
2023/03/26 05:36:27;;;;;;;31.10;17.27;;;5.80;99.90;;;;;;5003721;28;20074;-74
2023/03/26 05:39:14;;;;;;;34.33;18.55;;;5.80;99.90;;;;;;4989880;28;20061;-73
2023/03/26 05:42:00;;;;;;;31.35;16.55;;;6.00;99.90;;;;;;4988751;28;20099;-73
2023/03/26 05:44:38;;;;;;;30.67;16.88;;;6.20;99.90;;;;;;4989248;28;20264;-74
2023/03/26 05:47:16;;;;;;;32.90;18.85;;;6.40;99.90;;;;;;5005615;28;20043;-76
2023/03/26 05:49:43;;;;;;;35.97;19.63;;;6.60;99.90;;;;;;4990092;28;20054;-73
2023/03/26 05:52:14;;;;;;;34.72;19.33;;;6.80;99.90;;;;;;4988564;28;20149;-74
2023/03/26 05:55:17;;;;;;;38.08;19.90;;;6.90;99.90;;;;;;4992994;28;20046;-73
2023/03/26 05:58:03;;;;;;;38.05;19.67;;;6.90;99.90;;;;;;4988841;28;20061;-73
2023/03/26 06:00:49;;;;;;;;;;;7.00;99.90;;;;;;4990472;28;20177;-74
2023/03/26 06:03:28;;;;;;;42.50;20.83;;;7.20;99.90;;;;;;4988392;28;19921;-74
2023/03/26 06:06:16;;;;;;;35.33;18.92;;;7.30;99.90;;;;;;4987584;28;20078;-73
2023/03/26 06:08:53;;;;;;;33.10;19.10;;;7.40;99.90;;;;;;4987997;28;20105;-74
2023/03/26 06:11:22;;;;;;;31.58;17.83;;;7.40;99.90;;;;;;4988151;28;20035;-73
2023/03/26 06:13:49;;;;;;;34.63;19.25;;;7.50;99.90;;;;;;5002916;28;20049;-74
2023/03/26 06:16:17;;;;;;;35.33;19.08;;;7.20;99.90;;;;;;5002988;28;20034;-75
2023/03/26 06:18:50;;;;;;;30.50;18.48;;;7.10;99.90;;;;;;4988538;28;20506;-73
2023/03/26 06:21:18;;;;;;;28.08;15.85;;;7.30;99.90;;;;;;4991993;28;20050;-75
2023/03/26 06:23:50;;;;;;;28.40;17.23;;;7.50;99.90;;;;;;4987868;28;20046;-73
2023/03/26 06:26:49;;;;;;;27.75;15.57;;;7.50;99.90;;;;;;4983190;28;20133;-75
2023/03/26 06:29:34;;;;;;;29.38;14.93;;;7.80;99.90;;;;;;4987121;28;20046;-73
2023/03/26 06:32:18;;;;;;;34.33;18.60;;;7.80;99.90;;;;;;5004814;28;20070;-73
2023/03/26 06:34:50;;;;;;;33.63;18.33;;;8.10;99.90;;;;;;4988181;28;20073;-75
2023/03/26 06:37:18;;;;;;;30.10;17.65;;;8.00;99.90;;;;;;5004897;28;20031;-74
2023/03/26 06:39:47;;;;;;;26.90;17.00;;;8.10;99.90;;;;;;4987623;28;20070;-75
2023/03/26 06:42:21;;;;;;;31.05;16.20;;;8.20;99.90;;;;;;4987190;28;20386;-74
2023/03/26 06:45:02;;;;;;;33.33;17.58;;;8.30;99.90;;;;;;4986532;28;20039;-74
2023/03/26 06:47:35;;;;;;;29.73;19.20;;;8.30;99.90;;;;;;4989484;28;20042;-74
2023/03/26 06:50:26;;;;;;;34.40;19.98;;;8.40;99.90;;;;;;4990316;28;20046;-74
2023/03/26 06:52:56;;;;;;;36.67;21.52;;;8.40;99.90;;;;;;4987830;28;20506;-74
2023/03/26 06:55:44;;;;;;;30.35;18.48;;;8.50;99.90;;;;;;4986990;28;20506;-74
2023/03/26 06:58:42;;;;;;;35.17;19.95;;;8.70;99.90;;;;;;5002361;28;20129;-74
2023/03/26 07:01:28;;;;;;;35.00;18.70;;;8.60;99.90;;;;;;4987178;28;20115;-75
2023/03/26 07:04:14;;;;;;;37.58;20.35;;;8.70;99.90;;;;;;4988865;28;20053;-74
2023/03/26 07:07:00;;;;;;;;;;;8.90;99.90;;;;;;4994351;28;20450;-75
2023/03/26 07:09:46;;;;;;;27.75;16.35;;;9.00;99.90;;;;;;4996358;28;19928;-76
2023/03/26 07:12:37;;;;;;;23.63;15.35;;;8.80;99.90;;;;;;4987114;28;20034;-75
2023/03/26 07:15:32;;;;;;;30.23;16.58;;;8.90;99.90;;;;;;4988817;28;20046;-74
2023/03/26 07:17:59;;;;;;;27.08;16.02;;;9.10;99.90;;;;;;4989257;28;20133;-73
2023/03/26 07:20:33;;;;;;;27.13;16.73;;;9.30;99.90;;;;;;4993331;28;20129;-74
2023/03/26 07:23:01;;;;;;;27.05;16.13;;;9.60;99.90;;;;;;5002460;28;20073;-73
2023/03/26 07:25:53;;;;;;;26.15;15.68;;;9.80;99.90;;;;;;4994809;28;20046;-73
2023/03/26 07:28:36;;;;;;;23.10;13.82;;;10.00;99.90;;;;;;4990229;28;20042;-74
2023/03/26 07:31:33;;;;;;;24.52;14.15;;;9.90;99.90;;;;;;4992541;28;20049;-74
2023/03/26 07:34:42;;;;;;;20.60;13.80;;;10.20;99.90;;;;;;4983417;28;20046;-76
2023/03/26 07:37:32;;;;;;;18.48;13.23;;;10.50;99.90;;;;;;4989809;28;20089;-74
2023/03/26 07:40:33;;;;;;;19.75;14.05;;;10.60;99.90;;;;;;4991070;28;20378;-74
2023/03/26 07:43:32;;;;;;;23.10;14.48;;;10.70;99.90;;;;;;4990984;28;20057;-78
2023/03/26 07:46:32;;;;;;;30.67;19.50;;;11.00;99.90;;;;;;4983180;28;20038;-76
2023/03/26 07:49:23;;;;;;;27.45;18.83;;;11.20;99.90;;;;;;4988905;28;20038;-75
2023/03/26 07:52:24;;;;;;;26.40;17.58;;;11.40;99.90;;;;;;4984795;28;20034;-75
2023/03/26 07:55:19;;;;;;;26.88;18.27;;;11.60;99.90;;;;;;4989261;28;20133;-74
2023/03/26 07:58:17;;;;;;;27.33;19.20;;;11.50;99.90;;;;;;4991589;28;20850;-74
2023/03/26 08:01:12;;;;;;;27.02;19.25;;;11.60;99.90;;;;;;4979403;28;20039;-75
2023/03/26 08:04:00;;;;;;;26.35;18.45;;;11.60;99.90;;;;;;4988830;28;20068;-74
2023/03/26 08:06:54;;;;;;;28.27;20.02;;;11.60;99.90;;;;;;4991833;28;20375;-74
2023/03/26 08:09:52;;;;;;;30.08;20.65;;;11.90;99.90;;;;;;4994000;28;20391;-74
2023/03/26 08:12:43;;;;;;;36.33;23.27;;;12.30;99.90;;;;;;4989324;28;20449;-74
2023/03/26 08:15:21;;;;;;;35.45;20.90;;;12.40;99.90;;;;;;4990992;28;20042;-75
2023/03/26 08:17:55;;;;;;;32.45;20.67;;;12.60;99.90;;;;;;4992594;28;20483;-74
2023/03/26 08:20:35;;;;;;;29.35;20.10;;;12.70;99.90;;;;;;4992538;28;20129;-74
2023/03/26 08:23:08;;;;;;;26.85;18.38;;;13.00;99.90;;;;;;4992140;28;20077;-74
2023/03/26 08:25:41;;;;;;;24.35;17.77;;;13.10;99.90;;;;;;4990758;28;20046;-75
2023/03/26 08:28:20;;;;;;;28.60;19.13;;;13.20;99.90;;;;;;4993833;28;20050;-75
2023/03/26 08:30:49;;;;;;;26.20;19.60;;;13.50;99.90;;;;;;4996599;28;20049;-74
2023/03/26 08:33:19;;;;;;;29.17;14.95;;;13.90;99.90;;;;;;4994826;28;20073;-74
2023/03/26 08:35:49;;;;;;;23.33;15.55;;;14.20;99.90;;;;;;4991637;28;20069;-73
2023/03/26 08:38:21;;;;;;;15.52;10.13;;;14.50;99.90;;;;;;4990316;28;20054;-73
2023/03/26 08:41:36;;;;;;;15.23;9.77;;;14.80;99.90;;;;;;4991655;28;20070;-75
2023/03/26 08:44:34;;;;;;;15.05;10.40;;;15.00;1.00;;;;;;5001046;28;20042;-73
2023/03/26 08:47:22;;;;;;;18.58;12.85;;;15.30;1.00;;;;;;4996888;28;20379;-74
2023/03/26 08:50:03;;;;;;;12.60;7.95;;;15.40;1.00;;;;;;4990076;28;20053;-74
2023/03/26 08:53:00;;;;;;;14.85;9.60;;;15.50;99.90;;;;;;4989600;28;20068;-73
2023/03/26 08:55:43;;;;;;;17.33;10.43;;;15.40;99.90;;;;;;4990539;28;20058;-74
2023/03/26 08:58:53;;;;;;;17.40;11.17;;;15.40;15.90;;;;;;4990395;28;20046;-75
2023/03/26 09:01:56;;;;;;;13.75;9.98;;;15.40;99.90;;;;;;4990322;28;20126;-74
2023/03/26 09:05:09;;;;;;;12.23;8.25;;;15.50;99.90;;;;;;4989512;28;20754;-77
2023/03/26 09:08:14;;;;;;;17.35;10.88;;;15.50;1.00;;;;;;4989922;28;20518;-75
2023/03/26 09:11:07;;;;;;;18.27;9.73;;;15.50;1.00;;;;;;4989121;28;20042;-75
2023/03/26 09:14:06;;;;;;;16.45;9.93;;;15.50;1.00;;;;;;4989501;28;20061;-73
2023/03/26 09:17:09;;;;;;;9.57;6.60;;;15.50;1.00;;;;;;5004370;28;20040;-74
2023/03/26 09:19:58;;;;;;;10.73;6.47;;;15.30;1.00;;;;;;4990088;28;20065;-73
2023/03/26 09:23:08;;;;;;;8.50;5.13;;;15.40;1.00;;;;;;4990869;28;20045;-75
2023/03/26 09:26:03;;;;;;;8.15;4.68;;;15.50;1.00;;;;;;4930339;29;20042;-73
2023/03/26 09:29:14;;;;;;;5.07;3.20;;;15.40;1.00;;;;;;4988755;28;20073;-75
2023/03/26 09:32:02;;;;;;;7.20;3.17;;;15.50;1.00;;;;;;4992026;28;20112;-74
2023/03/26 09:34:31;;;;;;;3.88;2.20;;;15.60;1.00;;;;;;4988653;28;20049;-75
2023/03/26 09:37:22;;;;;;;9.10;2.28;;;15.60;1.00;;;;;;4989300;28;20145;-74
2023/03/26 09:40:05;;;;;;;6.13;3.65;;;15.80;1.00;;;;;;4988744;28;20568;-74
2023/03/26 09:42:43;;;;;;;3.85;2.20;;;15.80;1.00;;;;;;4989639;28;20038;-76
2023/03/26 09:45:40;;;;;;;5.28;1.98;;;16.00;1.00;;;;;;4990044;28;20043;-75
2023/03/26 09:48:52;;;;;;;4.18;2.20;;;16.10;1.00;;;;;;4988610;28;20461;-75
2023/03/26 09:51:51;;;;;;;5.47;2.13;;;16.10;1.00;;;;;;4993455;28;20061;-75
2023/03/26 09:54:47;;;;;;;4.35;2.50;;;16.30;1.00;;;;;;4989827;28;20038;-77
2023/03/26 09:57:29;;;;;;;3.85;2.17;;;16.30;1.00;;;;;;4987920;28;20057;-74
2023/03/26 10:00:21;;;;;;;3.42;2.17;;;16.40;1.00;;;;;;5003444;28;20058;-74
2023/03/26 10:03:08;;;;;;;5.35;1.92;;;16.50;99.90;;;;;;4989538;28;20062;-74
2023/03/26 10:05:52;;;;;;;4.00;2.05;;;16.50;99.90;;;;;;5003786;28;20133;-73
2023/03/26 10:08:35;;;;;;;5.82;2.75;;;16.50;99.90;;;;;;5004735;28;20054;-75
2023/03/26 10:11:09;;;;;;;4.32;2.55;;;16.60;99.90;;;;;;4989241;28;20111;-74
2023/03/26 10:13:48;;;;;;;6.55;3.00;;;16.60;99.90;;;;;;4988370;28;20490;-74
2023/03/26 10:16:28;;;;;;;3.22;1.52;;;16.70;99.90;;;;;;4989172;28;20564;-73
2023/03/26 10:19:10;;;;;;;2.33;1.10;;;16.80;99.90;;;;;;4989761;28;20046;-74
2023/03/26 10:21:45;;;;;;;3.15;1.17;;;16.90;99.90;;;;;;4988590;28;20045;-73
2023/03/26 10:24:28;;;;;;;3.60;1.50;;;16.90;99.90;;;;;;4989208;28;20064;-75
2023/03/26 10:27:11;;;;;;;2.28;1.15;;;17.00;99.90;;;;;;4988977;28;20042;-74
2023/03/26 10:30:01;;;;;;;4.38;1.60;;;17.10;99.90;;;;;;4989625;28;20046;-74
2023/03/26 10:32:36;;;;;;;3.38;1.45;;;17.20;99.90;;;;;;4974761;28;20509;-75
2023/03/26 10:35:18;;;;;;;3.88;2.05;;;17.20;99.90;;;;;;5003826;28;20091;-74
2023/03/26 10:37:58;;;;;;;3.60;1.58;;;17.10;99.90;;;;;;4989229;28;20043;-74
2023/03/26 10:40:33;;;;;;;1.95;0.98;;;17.20;99.90;;;;;;4988124;28;20137;-74
2023/03/26 10:43:42;;;;;;;1.48;0.65;;;17.30;99.90;;;;;;4988955;28;20046;-75
2023/03/26 10:46:44;;;;;;;6.35;1.10;;;17.40;99.90;;;;;;4984222;28;20046;-75
2023/03/26 10:49:51;;;;;;;2.42;1.40;;;17.60;99.90;;;;;;5001482;28;20124;-74
2023/03/26 10:52:22;;;;;;;7.68;3.88;;;17.80;99.90;;;;;;4998376;28;20077;-73
2023/03/26 10:54:55;;;;;;;7.20;2.72;;;18.00;99.90;;;;;;4993455;28;20050;-74
2023/03/26 10:57:37;;;;;;;5.80;1.90;;;18.10;99.90;;;;;;4994094;28;20079;-75
2023/03/26 11:00:16;;;;;;;8.70;6.35;;;18.20;99.90;;;;;;4994073;28;20066;-75
2023/03/26 11:02:54;;;;;;;3.78;1.38;;;18.30;99.90;;;;;;4994877;28;20054;-74
2023/03/26 11:05:42;;;;;;;3.03;1.38;;;18.40;99.90;;;;;;4994164;28;20054;-74
2023/03/26 11:08:15;;;;;;;4.50;1.75;;;18.40;99.90;;;;;;5001985;28;20053;-73
2023/03/26 11:10:51;;;;;;;8.35;5.40;;;18.40;99.90;;;;;;5002794;28;20509;-74
2023/03/26 11:13:26;;;;;;;2.00;0.82;;;18.60;99.90;;;;;;5008937;28;20108;-74
2023/03/26 11:16:00;;;;;;;2.58;1.42;;;18.70;99.90;;;;;;5008548;28;20061;-74
2023/03/26 11:18:37;;;;;;;2.35;0.95;;;18.70;99.90;;;;;;5005502;28;20110;-74
2023/03/26 11:21:11;;;;;;;2.72;1.30;;;18.80;99.90;;;;;;4994997;28;20038;-75
2023/03/26 11:23:49;;;;;;;3.65;2.03;;;18.80;99.90;;;;;;4993834;28;20042;-75
2023/03/26 11:26:23;;;;;;;6.82;2.10;;;18.90;99.90;;;;;;4993809;28;20124;-74
2023/03/26 11:29:30;;;;;;;3.22;1.52;;;19.20;99.90;;;;;;4992788;28;20043;-74
2023/03/26 11:32:04;;;;;;;1.73;0.80;;;19.40;99.90;;;;;;4988593;28;20034;-74
2023/03/26 11:34:37;;;;;;;2.78;0.98;;;19.70;99.90;;;;;;4991380;28;20046;-74
2023/03/26 11:37:13;;;;;;;2.58;1.10;;;19.50;99.90;;;;;;4992356;28;20061;-74
2023/03/26 11:39:48;;;;;;;1.90;1.02;;;19.50;99.90;;;;;;4993110;28;20230;-74
2023/03/26 11:42:18;;;;;;;3.45;1.40;;;19.30;99.90;;;;;;4994241;28;20057;-75
2023/03/26 11:44:52;;;;;;;2.95;0.90;;;19.20;99.90;;;;;;4992167;28;20043;-74
2023/03/26 11:47:24;;;;;;;1.20;0.60;;;19.00;99.90;;;;;;4998596;28;20050;-75
2023/03/26 11:49:55;;;;;;;1.80;0.75;;;18.60;99.90;;;;;;4997097;28;20070;-74
2023/03/26 11:52:25;;;;;;;3.72;1.40;;;18.50;99.90;;;;;;4993511;28;20038;-75
2023/03/26 11:54:52;;;;;;;4.22;1.10;;;18.70;99.90;;;;;;4992624;28;20065;-74
2023/03/26 11:57:25;;;;;;;5.57;3.63;;;18.80;99.90;;;;;;4991432;28;20058;-74
2023/03/26 11:59:58;;;;;;;3.78;1.67;;;18.80;99.90;;;;;;4991448;28;20043;-75
2023/03/26 12:02:31;;;;;;;4.40;1.73;;;18.80;99.90;;;;;;4992671;28;20499;-74
2023/03/26 12:05:18;;;;;;;2.70;1.00;;;18.80;99.90;;;;;;4991022;28;20259;-75
2023/03/26 12:07:52;;;;;;;2.67;1.20;;;18.90;99.90;;;;;;4992407;28;20043;-75
2023/03/26 12:10:29;;;;;;;4.03;1.83;;;19.00;99.90;;;;;;4991002;28;20056;-74
2023/03/26 12:13:00;;;;;;;2.03;1.10;;;19.00;99.90;;;;;;4989273;28;20054;-75
2023/03/26 12:15:29;;;;;;;5.65;3.28;;;19.10;99.90;;;;;;4990117;28;20446;-74
2023/03/26 12:17:58;;;;;;;2.60;1.52;;;19.00;99.90;;;;;;4990010;28;20536;-74
2023/03/26 12:20:37;;;;;;;4.78;2.38;;;19.00;99.90;;;;;;4991363;28;20085;-73
2023/03/26 12:23:07;;;;;;;2.33;1.10;;;19.10;99.90;;;;;;4992135;28;20057;-75
2023/03/26 12:25:36;;;;;;;1.80;1.10;;;19.20;99.90;;;;;;4991816;28;20101;-74
2023/03/26 12:28:11;;;;;;;3.05;1.35;;;19.20;99.90;;;;;;4997492;28;20050;-75
2023/03/26 12:30:40;;;;;;;2.58;1.25;;;19.20;99.90;;;;;;5002187;28;20490;-74
2023/03/26 12:33:25;;;;;;;2.60;1.00;;;19.10;99.90;;;;;;4997384;28;20505;-74
2023/03/26 12:35:54;;;;;;;2.47;1.20;;;19.00;99.90;;;;;;4989676;28;20557;-74
2023/03/26 12:38:31;;;;;;;1.50;0.63;;;19.10;99.90;;;;;;4990588;28;20042;-75
2023/03/26 12:41:07;;;;;;;1.95;0.95;;;19.20;99.90;;;;;;4988626;28;20134;-74
2023/03/26 12:43:41;;;;;;;2.45;1.10;;;19.30;99.90;;;;;;4990851;28;20486;-74
2023/03/26 12:46:28;;;;;;;4.13;2.65;;;19.20;99.90;;;;;;4990480;28;20049;-74
2023/03/26 12:48:58;;;;;;;3.42;1.50;;;19.20;99.90;;;;;;4991333;28;20121;-75
2023/03/26 12:51:44;;;;;;;3.03;1.27;;;19.30;99.90;;;;;;4991491;28;20048;-75
2023/03/26 12:54:33;;;;;;;8.33;4.73;;;19.30;99.90;;;;;;4990908;28;20125;-74
2023/03/26 12:57:19;;;;;;;4.40;1.73;;;19.40;99.90;;;;;;4989426;28;20296;-75
2023/03/26 13:00:05;;;;;;;6.38;3.03;;;19.30;99.90;;;;;;4991446;28;20074;-74
2023/03/26 13:03:07;;;;;;;5.90;3.13;;;19.50;99.90;;;;;;4990939;28;20061;-74
2023/03/26 13:05:59;;;;;;;4.57;1.70;;;19.60;99.90;;;;;;4988330;28;20158;-73
2023/03/26 13:08:48;;;;;;;3.35;1.45;;;19.70;99.90;;;;;;4989801;28;20057;-74
2023/03/26 13:11:24;;;;;;;1.98;1.10;;;19.70;99.90;;;;;;4990468;28;20137;-74
2023/03/26 13:14:25;;;;;;;3.97;1.60;;;19.70;99.90;;;;;;4995569;28;20058;-76
2023/03/26 13:16:58;;;;;;;5.18;3.05;;;19.80;99.90;;;;;;4994873;28;20105;-74
2023/03/26 13:19:33;;;;;;;6.60;3.25;;;20.00;99.90;;;;;;4994820;28;20046;-73
2023/03/26 13:22:13;;;;;;;6.88;2.92;;;20.10;99.90;;;;;;4989745;28;20094;-76
2023/03/26 13:24:52;;;;;;;4.07;1.67;;;20.30;99.90;;;;;;4986810;28;20498;-73
2023/03/26 13:27:34;;;;;;;4.40;1.73;;;20.30;99.90;;;;;;4988836;28;20042;-74
2023/03/26 13:30:15;;;;;;;3.90;1.75;;;20.20;99.90;;;;;;4989872;28;20034;-75
2023/03/26 13:32:56;;;;;;;3.10;1.60;;;20.20;99.90;;;;;;4994592;28;20050;-75
2023/03/26 13:35:30;;;;;;;3.67;1.98;;;20.20;99.90;;;;;;4988232;28;20054;-74
2023/03/26 13:38:04;;;;;;;3.47;1.98;;;20.20;99.90;;;;;;4990385;28;20050;-73
2023/03/26 13:40:40;;;;;;;2.53;1.40;;;20.30;99.90;;;;;;4988567;28;20426;-76